sensor_id;sensor_type;location;lat;lon;timestamp;P1;durP1;ratioP1;P2;durP2;ratioP2
40717;SDS011;26405;51.850;-2.246;2023-07-13T00:02:52;10.85;;;3.08;;
40717;SDS011;26405;51.850;-2.246;2023-07-13T00:05:19;8.05;;;2.80;;
40717;SDS011;26405;51.850;-2.246;2023-07-13T00:07:44;11.60;;;3.00;;
40717;SDS011;26405;51.850;-2.246;2023-07-13T00:10:11;9.63;;;2.72;;
40717;SDS011;26405;51.850;-2.246;2023-07-13T00:12:37;11.60;;;2.83;;
40717;SDS011;26405;51.850;-2.246;2023-07-13T00:15:07;11.23;;;3.05;;
40717;SDS011;26405;51.850;-2.246;2023-07-13T00:20:00;10.15;;;2.90;;
40717;SDS011;26405;51.850;-2.246;2023-07-13T00:22:25;11.38;;;3.13;;
40717;SDS011;26405;51.850;-2.246;2023-07-13T00:24:54;12.00;;;2.90;;
40717;SDS011;26405;51.850;-2.246;2023-07-13T00:27:21;9.13;;;2.90;;
40717;SDS011;26405;51.850;-2.246;2023-07-13T00:29:47;12.00;;;3.35;;
40717;SDS011;26405;51.850;-2.246;2023-07-13T00:32:12;11.05;;;3.00;;
40717;SDS011;26405;51.850;-2.246;2023-07-13T00:34:37;9.03;;;2.73;;
40717;SDS011;26405;51.850;-2.246;2023-07-13T00:37:03;11.27;;;3.08;;
40717;SDS011;26405;51.850;-2.246;2023-07-13T00:39:28;12.77;;;3.30;;
40717;SDS011;26405;51.850;-2.246;2023-07-13T00:41:53;12.13;;;2.75;;
40717;SDS011;26405;51.850;-2.246;2023-07-13T00:44:19;9.55;;;2.97;;
40717;SDS011;26405;51.850;-2.246;2023-07-13T00:46:46;10.10;;;2.78;;
40717;SDS011;26405;51.850;-2.246;2023-07-13T00:49:12;10.63;;;3.00;;
40717;SDS011;26405;51.850;-2.246;2023-07-13T00:51:48;14.52;;;3.10;;
40717;SDS011;26405;51.850;-2.246;2023-07-13T00:54:15;9.47;;;2.80;;
40717;SDS011;26405;51.850;-2.246;2023-07-13T00:56:42;9.07;;;3.13;;
40717;SDS011;26405;51.850;-2.246;2023-07-13T00:59:08;6.75;;;2.40;;
40717;SDS011;26405;51.850;-2.246;2023-07-13T01:01:36;8.80;;;3.00;;
40717;SDS011;26405;51.850;-2.246;2023-07-13T01:04:02;10.93;;;2.80;;
40717;SDS011;26405;51.850;-2.246;2023-07-13T01:06:27;9.85;;;2.83;;
40717;SDS011;26405;51.850;-2.246;2023-07-13T01:08:52;9.57;;;2.97;;
40717;SDS011;26405;51.850;-2.246;2023-07-13T01:11:19;7.85;;;2.75;;
40717;SDS011;26405;51.850;-2.246;2023-07-13T01:13:46;10.48;;;2.92;;
40717;SDS011;26405;51.850;-2.246;2023-07-13T01:16:23;10.30;;;2.67;;
40717;SDS011;26405;51.850;-2.246;2023-07-13T01:18:49;10.45;;;2.83;;
40717;SDS011;26405;51.850;-2.246;2023-07-13T01:21:14;8.93;;;2.65;;
40717;SDS011;26405;51.850;-2.246;2023-07-13T01:23:39;8.10;;;2.90;;
40717;SDS011;26405;51.850;-2.246;2023-07-13T01:26:05;10.60;;;2.70;;
40717;SDS011;26405;51.850;-2.246;2023-07-13T01:28:30;10.80;;;2.63;;
40717;SDS011;26405;51.850;-2.246;2023-07-13T01:30:57;10.13;;;2.55;;
40717;SDS011;26405;51.850;-2.246;2023-07-13T01:33:23;8.50;;;2.72;;
40717;SDS011;26405;51.850;-2.246;2023-07-13T01:35:49;10.40;;;3.07;;
40717;SDS011;26405;51.850;-2.246;2023-07-13T01:38:15;10.98;;;2.70;;
40717;SDS011;26405;51.850;-2.246;2023-07-13T01:40:40;10.68;;;2.72;;
40717;SDS011;26405;51.850;-2.246;2023-07-13T01:43:05;11.55;;;3.33;;
40717;SDS011;26405;51.850;-2.246;2023-07-13T01:45:31;8.63;;;2.70;;
40717;SDS011;26405;51.850;-2.246;2023-07-13T01:47:56;14.48;;;3.05;;
40717;SDS011;26405;51.850;-2.246;2023-07-13T01:50:23;11.75;;;2.97;;
40717;SDS011;26405;51.850;-2.246;2023-07-13T01:52:48;11.32;;;2.95;;
40717;SDS011;26405;51.850;-2.246;2023-07-13T01:55:14;8.90;;;2.45;;
40717;SDS011;26405;51.850;-2.246;2023-07-13T01:57:39;11.23;;;2.75;;
40717;SDS011;26405;51.850;-2.246;2023-07-13T02:00:04;9.63;;;2.45;;
40717;SDS011;26405;51.850;-2.246;2023-07-13T02:02:30;9.37;;;2.80;;
40717;SDS011;26405;51.850;-2.246;2023-07-13T02:04:56;10.55;;;2.60;;
40717;SDS011;26405;51.850;-2.246;2023-07-13T02:07:21;11.35;;;2.95;;
40717;SDS011;26405;51.850;-2.246;2023-07-13T02:09:46;12.27;;;2.85;;
40717;SDS011;26405;51.850;-2.246;2023-07-13T02:12:12;9.52;;;2.55;;
40717;SDS011;26405;51.850;-2.246;2023-07-13T02:14:37;10.40;;;2.67;;
40717;SDS011;26405;51.850;-2.246;2023-07-13T02:17:03;8.80;;;2.58;;
40717;SDS011;26405;51.850;-2.246;2023-07-13T02:19:29;7.20;;;2.40;;
40717;SDS011;26405;51.850;-2.246;2023-07-13T02:21:54;12.65;;;2.80;;
40717;SDS011;26405;51.850;-2.246;2023-07-13T02:24:19;11.40;;;2.80;;
40717;SDS011;26405;51.850;-2.246;2023-07-13T02:26:46;6.55;;;2.53;;
40717;SDS011;26405;51.850;-2.246;2023-07-13T02:29:11;9.82;;;2.70;;
40717;SDS011;26405;51.850;-2.246;2023-07-13T02:31:37;8.60;;;2.58;;
40717;SDS011;26405;51.850;-2.246;2023-07-13T02:34:02;11.98;;;2.80;;
40717;SDS011;26405;51.850;-2.246;2023-07-13T02:36:28;9.13;;;2.60;;
40717;SDS011;26405;51.850;-2.246;2023-07-13T02:38:53;8.88;;;2.63;;
40717;SDS011;26405;51.850;-2.246;2023-07-13T02:41:18;11.23;;;2.80;;
40717;SDS011;26405;51.850;-2.246;2023-07-13T02:43:43;11.68;;;2.92;;
40717;SDS011;26405;51.850;-2.246;2023-07-13T02:46:09;10.77;;;2.55;;
40717;SDS011;26405;51.850;-2.246;2023-07-13T02:48:34;10.35;;;3.20;;
40717;SDS011;26405;51.850;-2.246;2023-07-13T02:51:00;12.15;;;2.78;;
40717;SDS011;26405;51.850;-2.246;2023-07-13T02:53:25;8.20;;;2.35;;
40717;SDS011;26405;51.850;-2.246;2023-07-13T02:55:50;9.35;;;2.67;;
40717;SDS011;26405;51.850;-2.246;2023-07-13T02:58:16;14.07;;;2.95;;
40717;SDS011;26405;51.850;-2.246;2023-07-13T03:00:42;8.93;;;2.80;;
40717;SDS011;26405;51.850;-2.246;2023-07-13T03:03:07;10.83;;;2.83;;
40717;SDS011;26405;51.850;-2.246;2023-07-13T03:05:33;11.68;;;2.60;;
40717;SDS011;26405;51.850;-2.246;2023-07-13T03:07:58;11.90;;;2.78;;
40717;SDS011;26405;51.850;-2.246;2023-07-13T03:10:23;8.80;;;2.35;;
40717;SDS011;26405;51.850;-2.246;2023-07-13T03:12:49;10.35;;;2.67;;
40717;SDS011;26405;51.850;-2.246;2023-07-13T03:15:14;8.55;;;2.50;;
40717;SDS011;26405;51.850;-2.246;2023-07-13T03:17:39;8.43;;;2.42;;
40717;SDS011;26405;51.850;-2.246;2023-07-13T03:20:05;10.07;;;2.70;;
40717;SDS011;26405;51.850;-2.246;2023-07-13T03:24:57;11.90;;;2.70;;
40717;SDS011;26405;51.850;-2.246;2023-07-13T03:27:22;10.98;;;2.85;;
40717;SDS011;26405;51.850;-2.246;2023-07-13T03:29:47;8.13;;;2.65;;
40717;SDS011;26405;51.850;-2.246;2023-07-13T03:32:13;11.40;;;2.72;;
40717;SDS011;26405;51.850;-2.246;2023-07-13T03:34:38;7.95;;;2.40;;
40717;SDS011;26405;51.850;-2.246;2023-07-13T03:37:03;10.25;;;2.45;;
40717;SDS011;26405;51.850;-2.246;2023-07-13T03:39:29;7.93;;;2.53;;
40717;SDS011;26405;51.850;-2.246;2023-07-13T03:41:54;9.75;;;2.80;;
40717;SDS011;26405;51.850;-2.246;2023-07-13T03:44:19;7.50;;;2.50;;
40717;SDS011;26405;51.850;-2.246;2023-07-13T03:46:44;12.02;;;3.00;;
40717;SDS011;26405;51.850;-2.246;2023-07-13T03:49:10;11.70;;;2.47;;
40717;SDS011;26405;51.850;-2.246;2023-07-13T03:51:35;11.52;;;2.63;;
40717;SDS011;26405;51.850;-2.246;2023-07-13T03:54:01;8.75;;;2.65;;
40717;SDS011;26405;51.850;-2.246;2023-07-13T03:56:27;14.40;;;2.60;;
40717;SDS011;26405;51.850;-2.246;2023-07-13T03:58:53;11.18;;;2.85;;
40717;SDS011;26405;51.850;-2.246;2023-07-13T04:01:18;11.15;;;2.88;;
40717;SDS011;26405;51.850;-2.246;2023-07-13T04:03:44;12.10;;;2.87;;
40717;SDS011;26405;51.850;-2.246;2023-07-13T04:06:22;7.90;;;2.63;;
40717;SDS011;26405;51.850;-2.246;2023-07-13T04:08:49;6.53;;;2.40;;
40717;SDS011;26405;51.850;-2.246;2023-07-13T04:11:15;12.25;;;2.88;;
40717;SDS011;26405;51.850;-2.246;2023-07-13T04:13:40;11.07;;;2.90;;
40717;SDS011;26405;51.850;-2.246;2023-07-13T04:16:06;13.80;;;3.00;;
40717;SDS011;26405;51.850;-2.246;2023-07-13T04:18:31;6.43;;;2.67;;
40717;SDS011;26405;51.850;-2.246;2023-07-13T04:20:56;9.73;;;2.60;;
40717;SDS011;26405;51.850;-2.246;2023-07-13T04:23:21;8.45;;;2.58;;
40717;SDS011;26405;51.850;-2.246;2023-07-13T04:25:47;7.50;;;2.35;;
40717;SDS011;26405;51.850;-2.246;2023-07-13T04:28:14;7.57;;;2.70;;
40717;SDS011;26405;51.850;-2.246;2023-07-13T04:30:40;9.93;;;2.67;;
40717;SDS011;26405;51.850;-2.246;2023-07-13T04:33:05;9.57;;;2.45;;
40717;SDS011;26405;51.850;-2.246;2023-07-13T04:35:30;8.55;;;2.63;;
40717;SDS011;26405;51.850;-2.246;2023-07-13T04:37:56;6.82;;;2.30;;
40717;SDS011;26405;51.850;-2.246;2023-07-13T04:40:22;7.38;;;2.42;;
40717;SDS011;26405;51.850;-2.246;2023-07-13T04:42:47;9.60;;;2.60;;
40717;SDS011;26405;51.850;-2.246;2023-07-13T04:45:13;7.83;;;2.40;;
40717;SDS011;26405;51.850;-2.246;2023-07-13T04:47:38;10.00;;;2.60;;
40717;SDS011;26405;51.850;-2.246;2023-07-13T04:50:03;9.20;;;2.28;;
40717;SDS011;26405;51.850;-2.246;2023-07-13T04:52:29;9.23;;;2.67;;
40717;SDS011;26405;51.850;-2.246;2023-07-13T04:54:54;9.43;;;2.73;;
40717;SDS011;26405;51.850;-2.246;2023-07-13T04:57:20;7.68;;;2.60;;
40717;SDS011;26405;51.850;-2.246;2023-07-13T04:59:45;10.02;;;3.05;;
40717;SDS011;26405;51.850;-2.246;2023-07-13T05:02:10;7.32;;;2.42;;
40717;SDS011;26405;51.850;-2.246;2023-07-13T05:04:36;7.73;;;2.87;;
40717;SDS011;26405;51.850;-2.246;2023-07-13T05:07:01;8.03;;;2.77;;
40717;SDS011;26405;51.850;-2.246;2023-07-13T05:09:26;8.45;;;2.65;;
40717;SDS011;26405;51.850;-2.246;2023-07-13T05:11:51;10.70;;;2.90;;
40717;SDS011;26405;51.850;-2.246;2023-07-13T05:14:17;8.03;;;2.40;;
40717;SDS011;26405;51.850;-2.246;2023-07-13T05:16:42;9.43;;;2.70;;
40717;SDS011;26405;51.850;-2.246;2023-07-13T05:19:08;5.90;;;2.38;;
40717;SDS011;26405;51.850;-2.246;2023-07-13T05:21:33;9.03;;;2.80;;
40717;SDS011;26405;51.850;-2.246;2023-07-13T05:23:58;7.47;;;2.63;;
40717;SDS011;26405;51.850;-2.246;2023-07-13T05:26:23;5.43;;;2.47;;
40717;SDS011;26405;51.850;-2.246;2023-07-13T05:28:49;5.30;;;2.40;;
40717;SDS011;26405;51.850;-2.246;2023-07-13T05:31:14;6.82;;;2.50;;
40717;SDS011;26405;51.850;-2.246;2023-07-13T05:33:39;8.65;;;2.67;;
40717;SDS011;26405;51.850;-2.246;2023-07-13T05:36:05;8.00;;;2.83;;
40717;SDS011;26405;51.850;-2.246;2023-07-13T05:38:30;5.93;;;2.57;;
40717;SDS011;26405;51.850;-2.246;2023-07-13T05:40:56;10.43;;;2.70;;
40717;SDS011;26405;51.850;-2.246;2023-07-13T05:43:21;8.93;;;2.60;;
40717;SDS011;26405;51.850;-2.246;2023-07-13T05:45:47;9.82;;;3.00;;
40717;SDS011;26405;51.850;-2.246;2023-07-13T05:48:12;7.45;;;2.72;;
40717;SDS011;26405;51.850;-2.246;2023-07-13T05:50:38;8.10;;;2.57;;
40717;SDS011;26405;51.850;-2.246;2023-07-13T05:53:03;6.43;;;2.33;;
40717;SDS011;26405;51.850;-2.246;2023-07-13T05:55:28;15.27;;;3.28;;
40717;SDS011;26405;51.850;-2.246;2023-07-13T05:57:54;7.50;;;2.50;;
40717;SDS011;26405;51.850;-2.246;2023-07-13T06:00:19;9.13;;;2.83;;
40717;SDS011;26405;51.850;-2.246;2023-07-13T06:02:45;9.87;;;3.10;;
40717;SDS011;26405;51.850;-2.246;2023-07-13T06:05:10;9.95;;;2.40;;
40717;SDS011;26405;51.850;-2.246;2023-07-13T06:07:35;10.27;;;2.63;;
40717;SDS011;26405;51.850;-2.246;2023-07-13T06:10:00;11.32;;;2.75;;
40717;SDS011;26405;51.850;-2.246;2023-07-13T06:12:26;9.10;;;2.50;;
40717;SDS011;26405;51.850;-2.246;2023-07-13T06:14:51;9.38;;;3.00;;
40717;SDS011;26405;51.850;-2.246;2023-07-13T06:17:17;10.35;;;3.20;;
40717;SDS011;26405;51.850;-2.246;2023-07-13T06:19:42;11.17;;;3.20;;
40717;SDS011;26405;51.850;-2.246;2023-07-13T06:22:08;10.33;;;2.63;;
40717;SDS011;26405;51.850;-2.246;2023-07-13T06:24:33;8.68;;;2.83;;
40717;SDS011;26405;51.850;-2.246;2023-07-13T06:26:59;8.63;;;2.75;;
40717;SDS011;26405;51.850;-2.246;2023-07-13T06:29:24;9.85;;;3.03;;
40717;SDS011;26405;51.850;-2.246;2023-07-13T06:31:50;10.65;;;2.80;;
40717;SDS011;26405;51.850;-2.246;2023-07-13T06:34:15;8.88;;;2.60;;
40717;SDS011;26405;51.850;-2.246;2023-07-13T06:36:40;8.13;;;2.77;;
40717;SDS011;26405;51.850;-2.246;2023-07-13T06:39:06;12.60;;;2.70;;
40717;SDS011;26405;51.850;-2.246;2023-07-13T06:41:32;11.33;;;3.20;;
40717;SDS011;26405;51.850;-2.246;2023-07-13T06:43:58;7.10;;;2.50;;
40717;SDS011;26405;51.850;-2.246;2023-07-13T06:46:23;5.93;;;2.70;;
40717;SDS011;26405;51.850;-2.246;2023-07-13T06:48:49;6.70;;;2.93;;
40717;SDS011;26405;51.850;-2.246;2023-07-13T06:51:14;13.95;;;3.17;;
40717;SDS011;26405;51.850;-2.246;2023-07-13T06:53:40;12.73;;;3.40;;
40717;SDS011;26405;51.850;-2.246;2023-07-13T06:56:05;8.97;;;3.13;;
40717;SDS011;26405;51.850;-2.246;2023-07-13T06:58:31;7.43;;;3.00;;
40717;SDS011;26405;51.850;-2.246;2023-07-13T07:00:56;10.65;;;3.45;;
40717;SDS011;26405;51.850;-2.246;2023-07-13T07:03:22;13.83;;;4.10;;
40717;SDS011;26405;51.850;-2.246;2023-07-13T07:05:47;12.57;;;3.53;;
40717;SDS011;26405;51.850;-2.246;2023-07-13T07:08:12;10.90;;;3.50;;
40717;SDS011;26405;51.850;-2.246;2023-07-13T07:10:38;12.90;;;3.67;;
40717;SDS011;26405;51.850;-2.246;2023-07-13T07:13:03;11.20;;;3.63;;
40717;SDS011;26405;51.850;-2.246;2023-07-13T07:15:29;10.27;;;3.30;;
40717;SDS011;26405;51.850;-2.246;2023-07-13T07:17:54;9.77;;;3.30;;
40717;SDS011;26405;51.850;-2.246;2023-07-13T07:20:19;9.18;;;3.33;;
40717;SDS011;26405;51.850;-2.246;2023-07-13T07:22:45;10.33;;;3.27;;
40717;SDS011;26405;51.850;-2.246;2023-07-13T07:25:10;12.33;;;3.20;;
40717;SDS011;26405;51.850;-2.246;2023-07-13T07:27:36;11.30;;;3.30;;
40717;SDS011;26405;51.850;-2.246;2023-07-13T07:30:01;9.90;;;3.23;;
40717;SDS011;26405;51.850;-2.246;2023-07-13T07:32:28;10.70;;;3.40;;
40717;SDS011;26405;51.850;-2.246;2023-07-13T07:34:54;8.80;;;3.05;;
40717;SDS011;26405;51.850;-2.246;2023-07-13T07:37:19;11.23;;;3.30;;
40717;SDS011;26405;51.850;-2.246;2023-07-13T07:39:44;12.17;;;3.17;;
40717;SDS011;26405;51.850;-2.246;2023-07-13T07:42:10;9.63;;;3.22;;
40717;SDS011;26405;51.850;-2.246;2023-07-13T07:44:35;7.67;;;2.93;;
40717;SDS011;26405;51.850;-2.246;2023-07-13T07:47:00;11.63;;;3.07;;
40717;SDS011;26405;51.850;-2.246;2023-07-13T07:49:26;9.70;;;3.50;;
40717;SDS011;26405;51.850;-2.246;2023-07-13T07:51:51;6.73;;;2.50;;
40717;SDS011;26405;51.850;-2.246;2023-07-13T07:54:16;8.97;;;3.10;;
40717;SDS011;26405;51.850;-2.246;2023-07-13T07:56:42;12.67;;;3.00;;
40717;SDS011;26405;51.850;-2.246;2023-07-13T07:59:07;8.30;;;2.63;;
40717;SDS011;26405;51.850;-2.246;2023-07-13T08:01:32;11.77;;;3.23;;
40717;SDS011;26405;51.850;-2.246;2023-07-13T08:03:58;10.27;;;3.07;;
40717;SDS011;26405;51.850;-2.246;2023-07-13T08:06:23;9.17;;;2.90;;
40717;SDS011;26405;51.850;-2.246;2023-07-13T08:08:48;9.00;;;2.90;;
40717;SDS011;26405;51.850;-2.246;2023-07-13T08:11:15;9.50;;;2.97;;
40717;SDS011;26405;51.850;-2.246;2023-07-13T08:13:41;8.07;;;2.55;;
40717;SDS011;26405;51.850;-2.246;2023-07-13T08:16:06;8.40;;;2.73;;
40717;SDS011;26405;51.850;-2.246;2023-07-13T08:18:31;6.33;;;2.77;;
40717;SDS011;26405;51.850;-2.246;2023-07-13T08:20:57;7.17;;;2.50;;
40717;SDS011;26405;51.850;-2.246;2023-07-13T08:23:23;5.85;;;2.28;;
40717;SDS011;26405;51.850;-2.246;2023-07-13T08:25:52;7.00;;;2.37;;
40717;SDS011;26405;51.850;-2.246;2023-07-13T08:28:18;10.52;;;2.90;;
40717;SDS011;26405;51.850;-2.246;2023-07-13T08:30:45;7.57;;;2.70;;
40717;SDS011;26405;51.850;-2.246;2023-07-13T08:33:13;6.97;;;2.55;;
40717;SDS011;26405;51.850;-2.246;2023-07-13T08:35:39;7.60;;;2.57;;
40717;SDS011;26405;51.850;-2.246;2023-07-13T08:38:04;11.60;;;2.70;;
40717;SDS011;26405;51.850;-2.246;2023-07-13T08:40:29;5.73;;;2.50;;
40717;SDS011;26405;51.850;-2.246;2023-07-13T08:42:56;7.87;;;2.90;;
40717;SDS011;26405;51.850;-2.246;2023-07-13T08:45:30;5.72;;;2.20;;
40717;SDS011;26405;51.850;-2.246;2023-07-13T08:48:01;7.80;;;2.33;;
40717;SDS011;26405;51.850;-2.246;2023-07-13T08:50:30;8.95;;;3.33;;
40717;SDS011;26405;51.850;-2.246;2023-07-13T08:52:57;7.22;;;2.50;;
40717;SDS011;26405;51.850;-2.246;2023-07-13T08:55:27;5.67;;;2.40;;
40717;SDS011;26405;51.850;-2.246;2023-07-13T08:58:12;7.75;;;2.30;;
40717;SDS011;26405;51.850;-2.246;2023-07-13T09:00:43;5.88;;;2.35;;
40717;SDS011;26405;51.850;-2.246;2023-07-13T09:03:16;4.28;;;2.20;;
40717;SDS011;26405;51.850;-2.246;2023-07-13T09:05:45;5.28;;;2.33;;
40717;SDS011;26405;51.850;-2.246;2023-07-13T09:13:07;8.17;;;2.90;;
40717;SDS011;26405;51.850;-2.246;2023-07-13T09:15:39;8.20;;;2.80;;
40717;SDS011;26405;51.850;-2.246;2023-07-13T09:18:23;5.03;;;2.42;;
40717;SDS011;26405;51.850;-2.246;2023-07-13T09:20:51;8.82;;;2.92;;
40717;SDS011;26405;51.850;-2.246;2023-07-13T09:23:19;8.73;;;2.47;;
40717;SDS011;26405;51.850;-2.246;2023-07-13T09:25:46;10.75;;;2.80;;
40717;SDS011;26405;51.850;-2.246;2023-07-13T09:30:58;8.73;;;2.60;;
40717;SDS011;26405;51.850;-2.246;2023-07-13T09:33:25;8.82;;;2.42;;
40717;SDS011;26405;51.850;-2.246;2023-07-13T09:35:54;8.20;;;2.55;;
40717;SDS011;26405;51.850;-2.246;2023-07-13T09:38:19;6.33;;;2.37;;
40717;SDS011;26405;51.850;-2.246;2023-07-13T09:40:51;5.03;;;2.28;;
40717;SDS011;26405;51.850;-2.246;2023-07-13T09:43:17;8.40;;;2.00;;
40717;SDS011;26405;51.850;-2.246;2023-07-13T09:45:45;7.00;;;2.13;;
40717;SDS011;26405;51.850;-2.246;2023-07-13T09:48:11;6.30;;;2.25;;
40717;SDS011;26405;51.850;-2.246;2023-07-13T09:50:38;3.75;;;1.83;;
40717;SDS011;26405;51.850;-2.246;2023-07-13T09:53:03;8.73;;;2.20;;
40717;SDS011;26405;51.850;-2.246;2023-07-13T09:58:02;4.78;;;2.22;;
40717;SDS011;26405;51.850;-2.246;2023-07-13T10:00:29;5.30;;;2.20;;
40717;SDS011;26405;51.850;-2.246;2023-07-13T10:03:37;4.78;;;2.20;;
40717;SDS011;26405;51.850;-2.246;2023-07-13T10:05:43;7.03;;;2.10;;
40717;SDS011;26405;51.850;-2.246;2023-07-13T10:08:15;4.78;;;2.00;;
40717;SDS011;26405;51.850;-2.246;2023-07-13T10:10:40;7.43;;;2.10;;
40717;SDS011;26405;51.850;-2.246;2023-07-13T10:13:08;3.83;;;2.00;;
40717;SDS011;26405;51.850;-2.246;2023-07-13T10:15:45;5.18;;;1.90;;
40717;SDS011;26405;51.850;-2.246;2023-07-13T10:18:10;2.70;;;1.93;;
40717;SDS011;26405;51.850;-2.246;2023-07-13T10:20:36;4.03;;;2.00;;
40717;SDS011;26405;51.850;-2.246;2023-07-13T10:23:02;6.70;;;1.93;;
40717;SDS011;26405;51.850;-2.246;2023-07-13T10:25:33;4.50;;;1.98;;
40717;SDS011;26405;51.850;-2.246;2023-07-13T10:28:10;4.15;;;1.85;;
40717;SDS011;26405;51.850;-2.246;2023-07-13T10:30:38;2.83;;;1.73;;
40717;SDS011;26405;51.850;-2.246;2023-07-13T10:33:09;5.82;;;2.00;;
40717;SDS011;26405;51.850;-2.246;2023-07-13T10:35:36;6.05;;;1.90;;
40717;SDS011;26405;51.850;-2.246;2023-07-13T10:38:03;5.93;;;2.22;;
40717;SDS011;26405;51.850;-2.246;2023-07-13T10:40:38;5.53;;;1.88;;
40717;SDS011;26405;51.850;-2.246;2023-07-13T10:43:09;2.50;;;1.70;;
40717;SDS011;26405;51.850;-2.246;2023-07-13T10:45:37;6.88;;;2.47;;
40717;SDS011;26405;51.850;-2.246;2023-07-13T10:48:02;7.13;;;2.40;;
40717;SDS011;26405;51.850;-2.246;2023-07-13T10:50:29;7.10;;;2.47;;
40717;SDS011;26405;51.850;-2.246;2023-07-13T10:52:56;6.05;;;2.15;;
40717;SDS011;26405;51.850;-2.246;2023-07-13T10:56:15;6.85;;;2.30;;
40717;SDS011;26405;51.850;-2.246;2023-07-13T11:00:46;4.00;;;2.03;;
40717;SDS011;26405;51.850;-2.246;2023-07-13T11:03:13;9.02;;;2.30;;
40717;SDS011;26405;51.850;-2.246;2023-07-13T11:05:38;5.35;;;2.00;;
40717;SDS011;26405;51.850;-2.246;2023-07-13T11:10:53;4.65;;;2.17;;
40717;SDS011;26405;51.850;-2.246;2023-07-13T11:14:25;6.45;;;2.10;;
40717;SDS011;26405;51.850;-2.246;2023-07-13T11:18:45;5.40;;;2.20;;
40717;SDS011;26405;51.850;-2.246;2023-07-13T11:21:14;4.75;;;2.03;;
40717;SDS011;26405;51.850;-2.246;2023-07-13T11:23:44;5.20;;;2.00;;
40717;SDS011;26405;51.850;-2.246;2023-07-13T11:28:54;5.55;;;2.25;;
40717;SDS011;26405;51.850;-2.246;2023-07-13T11:31:19;4.50;;;2.10;;
40717;SDS011;26405;51.850;-2.246;2023-07-13T11:33:52;5.00;;;2.10;;
40717;SDS011;26405;51.850;-2.246;2023-07-13T11:36:18;6.88;;;2.50;;
40717;SDS011;26405;51.850;-2.246;2023-07-13T11:39:12;5.45;;;2.28;;
40717;SDS011;26405;51.850;-2.246;2023-07-13T11:41:54;6.65;;;2.08;;
40717;SDS011;26405;51.850;-2.246;2023-07-13T11:44:22;8.57;;;2.40;;
40717;SDS011;26405;51.850;-2.246;2023-07-13T11:46:57;6.10;;;2.20;;
40717;SDS011;26405;51.850;-2.246;2023-07-13T11:49:26;8.32;;;2.25;;
40717;SDS011;26405;51.850;-2.246;2023-07-13T11:51:54;4.97;;;2.28;;
40717;SDS011;26405;51.850;-2.246;2023-07-13T11:54:25;4.90;;;1.95;;
40717;SDS011;26405;51.850;-2.246;2023-07-13T11:57:37;5.15;;;2.38;;
40717;SDS011;26405;51.850;-2.246;2023-07-13T11:59:42;3.67;;;1.92;;
40717;SDS011;26405;51.850;-2.246;2023-07-13T12:02:13;5.80;;;2.23;;
40717;SDS011;26405;51.850;-2.246;2023-07-13T12:04:42;7.40;;;2.30;;
40717;SDS011;26405;51.850;-2.246;2023-07-13T12:11:58;5.05;;;2.30;;
40717;SDS011;26405;51.850;-2.246;2023-07-13T12:14:25;5.55;;;2.22;;
40717;SDS011;26405;51.850;-2.246;2023-07-13T12:16:51;5.38;;;2.28;;
40717;SDS011;26405;51.850;-2.246;2023-07-13T12:19:19;5.75;;;1.85;;
40717;SDS011;26405;51.850;-2.246;2023-07-13T12:21:45;6.15;;;2.20;;
40717;SDS011;26405;51.850;-2.246;2023-07-13T12:24:20;5.40;;;2.10;;
40717;SDS011;26405;51.850;-2.246;2023-07-13T12:29:16;4.32;;;2.03;;
40717;SDS011;26405;51.850;-2.246;2023-07-13T12:31:42;5.60;;;2.22;;
40717;SDS011;26405;51.850;-2.246;2023-07-13T12:34:10;7.00;;;2.20;;
40717;SDS011;26405;51.850;-2.246;2023-07-13T12:39:18;5.65;;;2.30;;
40717;SDS011;26405;51.850;-2.246;2023-07-13T12:41:44;5.80;;;2.20;;
40717;SDS011;26405;51.850;-2.246;2023-07-13T12:44:11;8.13;;;2.35;;
40717;SDS011;26405;51.850;-2.246;2023-07-13T12:46:37;8.32;;;2.60;;
40717;SDS011;26405;51.850;-2.246;2023-07-13T12:49:04;6.13;;;2.37;;
40717;SDS011;26405;51.850;-2.246;2023-07-13T12:51:32;8.35;;;2.25;;
40717;SDS011;26405;51.850;-2.246;2023-07-13T12:53:59;6.50;;;2.47;;
40717;SDS011;26405;51.850;-2.246;2023-07-13T12:56:30;4.88;;;2.17;;
40717;SDS011;26405;51.850;-2.246;2023-07-13T12:58:59;5.75;;;2.60;;
40717;SDS011;26405;51.850;-2.246;2023-07-13T13:01:29;8.82;;;2.63;;
40717;SDS011;26405;51.850;-2.246;2023-07-13T13:03:54;9.30;;;2.70;;
40717;SDS011;26405;51.850;-2.246;2023-07-13T13:06:28;5.83;;;2.60;;
40717;SDS011;26405;51.850;-2.246;2023-07-13T13:08:56;6.20;;;2.22;;
40717;SDS011;26405;51.850;-2.246;2023-07-13T13:11:23;6.40;;;2.38;;
40717;SDS011;26405;51.850;-2.246;2023-07-13T13:13:49;4.60;;;2.40;;
40717;SDS011;26405;51.850;-2.246;2023-07-13T13:18:46;4.18;;;2.17;;
40717;SDS011;26405;51.850;-2.246;2023-07-13T13:21:11;6.70;;;2.67;;
40717;SDS011;26405;51.850;-2.246;2023-07-13T13:23:37;7.57;;;2.50;;
40717;SDS011;26405;51.850;-2.246;2023-07-13T13:26:03;3.03;;;2.27;;
40717;SDS011;26405;51.850;-2.246;2023-07-13T13:28:28;5.50;;;2.30;;
40717;SDS011;26405;51.850;-2.246;2023-07-13T13:30:54;4.43;;;2.47;;
40717;SDS011;26405;51.850;-2.246;2023-07-13T13:33:20;2.50;;;2.13;;
40717;SDS011;26405;51.850;-2.246;2023-07-13T13:35:46;3.30;;;2.08;;
40717;SDS011;26405;51.850;-2.246;2023-07-13T13:38:15;3.93;;;2.27;;
40717;SDS011;26405;51.850;-2.246;2023-07-13T13:40:42;5.25;;;2.13;;
40717;SDS011;26405;51.850;-2.246;2023-07-13T13:43:24;3.92;;;2.10;;
40717;SDS011;26405;51.850;-2.246;2023-07-13T13:45:52;5.63;;;2.35;;
40717;SDS011;26405;51.850;-2.246;2023-07-13T13:48:18;6.72;;;2.40;;
40717;SDS011;26405;51.850;-2.246;2023-07-13T13:53:10;7.17;;;2.70;;
40717;SDS011;26405;51.850;-2.246;2023-07-13T13:55:35;4.53;;;2.42;;
40717;SDS011;26405;51.850;-2.246;2023-07-13T13:58:00;5.60;;;2.40;;
40717;SDS011;26405;51.850;-2.246;2023-07-13T14:00:26;7.30;;;2.60;;
40717;SDS011;26405;51.850;-2.246;2023-07-13T14:02:51;8.23;;;2.87;;
40717;SDS011;26405;51.850;-2.246;2023-07-13T14:05:21;7.20;;;2.38;;
40717;SDS011;26405;51.850;-2.246;2023-07-13T14:07:47;6.85;;;2.22;;
40717;SDS011;26405;51.850;-2.246;2023-07-13T14:10:13;7.07;;;2.57;;
40717;SDS011;26405;51.850;-2.246;2023-07-13T14:12:40;6.03;;;2.40;;
40717;SDS011;26405;51.850;-2.246;2023-07-13T14:15:09;5.93;;;2.40;;
40717;SDS011;26405;51.850;-2.246;2023-07-13T14:17:39;5.47;;;2.50;;
40717;SDS011;26405;51.850;-2.246;2023-07-13T14:20:05;9.07;;;2.47;;
40717;SDS011;26405;51.850;-2.246;2023-07-13T14:22:34;6.47;;;2.13;;
40717;SDS011;26405;51.850;-2.246;2023-07-13T14:25:00;11.00;;;2.50;;
40717;SDS011;26405;51.850;-2.246;2023-07-13T14:27:25;5.00;;;2.33;;
40717;SDS011;26405;51.850;-2.246;2023-07-13T14:29:51;7.73;;;2.47;;
40717;SDS011;26405;51.850;-2.246;2023-07-13T14:32:16;5.70;;;2.20;;
40717;SDS011;26405;51.850;-2.246;2023-07-13T14:34:41;5.80;;;2.53;;
40717;SDS011;26405;51.850;-2.246;2023-07-13T14:37:11;5.00;;;2.37;;
40717;SDS011;26405;51.850;-2.246;2023-07-13T14:39:38;7.85;;;2.47;;
40717;SDS011;26405;51.850;-2.246;2023-07-13T14:42:03;8.17;;;2.37;;
40717;SDS011;26405;51.850;-2.246;2023-07-13T14:44:30;5.33;;;2.30;;
40717;SDS011;26405;51.850;-2.246;2023-07-13T14:46:57;6.20;;;2.40;;
40717;SDS011;26405;51.850;-2.246;2023-07-13T14:51:51;6.22;;;2.28;;
40717;SDS011;26405;51.850;-2.246;2023-07-13T14:54:16;7.27;;;2.17;;
40717;SDS011;26405;51.850;-2.246;2023-07-13T14:56:41;4.27;;;2.30;;
40717;SDS011;26405;51.850;-2.246;2023-07-13T14:59:06;6.73;;;2.20;;
40717;SDS011;26405;51.850;-2.246;2023-07-13T15:01:33;3.20;;;2.30;;
40717;SDS011;26405;51.850;-2.246;2023-07-13T15:03:58;3.75;;;2.03;;
40717;SDS011;26405;51.850;-2.246;2023-07-13T15:06:23;5.97;;;2.40;;
40717;SDS011;26405;51.850;-2.246;2023-07-13T15:08:49;4.80;;;2.23;;
40717;SDS011;26405;51.850;-2.246;2023-07-13T15:11:16;5.77;;;2.50;;
40717;SDS011;26405;51.850;-2.246;2023-07-13T15:13:41;6.32;;;2.47;;